createdAt,value
2022-11-16T00:03:12.637Z,22.68
2022-11-16T00:08:15.443Z,22.69
2022-11-16T00:13:18.339Z,22.69
2022-11-16T00:18:22.480Z,22.70
2022-11-16T00:23:25.906Z,22.69
2022-11-16T00:28:29.770Z,22.73
2022-11-16T00:33:34.933Z,22.69
2022-11-16T00:38:37.835Z,22.71
2022-11-16T00:43:41.174Z,22.70
2022-11-16T00:48:45.280Z,22.73
2022-11-16T00:53:48.376Z,22.73
2022-11-16T00:58:51.384Z,22.71
2022-11-16T01:03:55.569Z,22.73
2022-11-16T01:08:58.469Z,22.70
2022-11-16T01:14:03.257Z,22.68
2022-11-16T01:19:07.835Z,22.71
2022-11-16T01:24:10.579Z,22.71
2022-11-16T01:29:13.357Z,22.71
2022-11-16T01:34:22.567Z,22.73
2022-11-16T01:39:26.858Z,22.74
2022-11-16T01:44:57.981Z,22.74
2022-11-16T01:50:09.657Z,22.75
2022-11-16T01:55:14.190Z,22.76
2022-11-16T02:00:41.923Z,22.75
2022-11-16T02:06:33.723Z,22.73
2022-11-16T02:12:07.369Z,22.75
2022-11-16T02:17:20.097Z,22.71
2022-11-16T02:22:39.711Z,22.71
2022-11-16T02:28:18.330Z,22.68
2022-11-16T02:33:27.995Z,22.75
2022-11-16T02:38:35.033Z,22.74
2022-11-16T02:43:43.721Z,22.71
2022-11-16T02:48:53.895Z,22.71
2022-11-16T02:54:03.449Z,22.69
2022-11-16T02:59:15.227Z,22.67
2022-11-16T03:04:29.298Z,22.68
2022-11-16T03:09:35.148Z,22.71
2022-11-16T03:14:44.025Z,22.74
2022-11-16T03:19:59.358Z,22.75
2022-11-16T03:25:02.424Z,22.75
2022-11-16T03:30:08.959Z,22.70
2022-11-16T03:35:23.206Z,22.72
2022-11-16T03:40:30.246Z,22.73
2022-11-16T03:45:34.263Z,22.71
2022-11-16T03:50:41.787Z,22.74
2022-11-16T03:55:49.746Z,22.73
2022-11-16T04:00:53.756Z,22.71
2022-11-16T04:06:15.584Z,22.72
2022-11-16T04:11:38.990Z,22.68
2022-11-16T04:16:59.439Z,22.71
2022-11-16T04:22:25.033Z,22.70
2022-11-16T04:27:49.354Z,22.68
2022-11-16T04:33:23.130Z,22.72
2022-11-16T04:38:27.229Z,22.70
2022-11-16T04:43:30.175Z,22.70
2022-11-16T04:48:33.428Z,22.72
2022-11-16T04:53:39.660Z,22.71
2022-11-16T04:58:50.647Z,22.71
2022-11-16T05:03:54.204Z,22.73
2022-11-16T05:08:58.552Z,22.68
2022-11-16T05:14:01.824Z,22.70
2022-11-16T05:19:22.689Z,22.73
2022-11-16T05:24:36.295Z,22.75
2022-11-16T05:29:41.143Z,22.74
2022-11-16T05:34:44.596Z,22.72
2022-11-16T05:39:49.229Z,22.73
2022-11-16T05:44:52.215Z,22.71
2022-11-16T05:49:55.078Z,22.70
2022-11-16T05:55:01.298Z,22.66
2022-11-16T06:00:08.477Z,22.59
2022-11-16T06:05:17.637Z,22.55
2022-11-16T06:10:23.310Z,22.48
2022-11-16T06:15:28.206Z,22.36
2022-11-16T06:20:31.074Z,22.27
2022-11-16T06:25:35.362Z,22.16
2022-11-16T06:30:40.554Z,22.00
2022-11-16T06:35:44.448Z,21.92
2022-11-16T06:40:53.374Z,21.85
2022-11-16T06:45:58.740Z,21.75
2022-11-16T06:51:01.766Z,21.65
2022-11-16T06:56:07.704Z,21.51
2022-11-16T07:01:16.698Z,21.38
2022-11-16T07:06:21.413Z,21.34
2022-11-16T07:11:27.102Z,21.25
2022-11-16T07:16:30.365Z,21.19
2022-11-16T07:21:37.858Z,21.10
2022-11-16T07:26:45.885Z,21.03
2022-11-16T07:31:53.107Z,21.00
2022-11-16T07:37:10.610Z,20.96
2022-11-16T07:42:14.858Z,20.89
2022-11-16T07:47:27.983Z,20.85
2022-11-16T07:52:31.461Z,20.81
2022-11-16T07:57:39.036Z,20.78
2022-11-16T08:02:44.541Z,20.72
2022-11-16T08:07:53.399Z,20.82
2022-11-16T08:13:01.005Z,20.84
2022-11-16T08:18:04.578Z,20.75
2022-11-16T08:23:07.561Z,20.68
2022-11-16T08:28:14.391Z,20.55
2022-11-16T08:33:19.479Z,19.59
2022-11-16T08:38:22.590Z,19.27
2022-11-16T08:43:29.291Z,19.53
2022-11-16T08:48:32.423Z,19.87
2022-11-16T08:53:35.799Z,20.06
2022-11-16T08:58:42.365Z,20.15
2022-11-16T09:03:46.573Z,20.21
2022-11-16T09:08:49.480Z,20.27
2022-11-16T09:13:55.516Z,20.28
2022-11-16T09:18:58.515Z,20.31
2022-11-16T09:24:01.245Z,20.32
2022-11-16T09:29:05.408Z,20.32
2022-11-16T09:34:09.014Z,20.34
2022-11-16T09:39:30.708Z,20.31
2022-11-16T09:44:53.958Z,20.29
2022-11-16T09:50:03.680Z,20.29
2022-11-16T09:55:23.889Z,20.29
2022-11-16T10:00:30.476Z,20.27
2022-11-16T10:05:39.809Z,20.27
2022-11-16T10:10:51.546Z,20.25
2022-11-16T10:16:05.024Z,20.25
2022-11-16T10:21:24.807Z,20.23
2022-11-16T10:26:35.958Z,20.22
2022-11-16T10:31:54.159Z,20.22
2022-11-16T10:37:03.306Z,20.22
2022-11-16T10:42:12.186Z,20.22
2022-11-16T10:47:21.973Z,20.21
2022-11-16T10:52:25.183Z,20.22
2022-11-16T10:57:54.756Z,20.22
2022-11-16T11:02:58.847Z,20.23
2022-11-16T11:08:03.402Z,20.22
2022-11-16T11:13:20.533Z,20.22
2022-11-16T11:18:30.313Z,20.22
2022-11-16T11:23:42.544Z,20.22
2022-11-16T11:28:50.582Z,20.23
2022-11-16T11:33:58.193Z,20.25
2022-11-16T11:39:03.633Z,20.26
2022-11-16T11:44:15.683Z,20.24
2022-11-16T11:49:29.146Z,20.26
2022-11-16T11:54:45.874Z,20.26
2022-11-16T11:59:49.971Z,20.25
2022-11-16T12:05:28.975Z,20.22
2022-11-16T12:10:43.399Z,20.22
2022-11-16T12:16:03.877Z,20.21
2022-11-16T12:21:13.789Z,20.21
2022-11-16T12:26:25.253Z,20.18
2022-11-16T12:31:45.653Z,20.18
2022-11-16T12:36:59.297Z,20.20
2022-11-16T12:42:27.903Z,20.21
2022-11-16T12:47:41.618Z,20.18
2022-11-16T12:53:08.495Z,20.16
2022-11-16T12:58:24.005Z,20.15
2022-11-16T13:03:34.517Z,20.10
2022-11-16T13:08:50.965Z,20.04
2022-11-16T13:13:59.334Z,20.02
2022-11-16T13:19:07.264Z,20.00
2022-11-16T13:24:24.161Z,20.00
2022-11-16T13:29:35.084Z,19.98
2022-11-16T13:34:40.980Z,19.97
2022-11-16T13:40:14.883Z,19.92
2022-11-16T13:45:20.425Z,19.93
2022-11-16T13:50:34.518Z,19.93
2022-11-16T13:55:44.111Z,19.90
2022-11-16T14:00:58.582Z,19.87
2022-11-16T14:06:01.472Z,19.88
2022-11-16T14:11:26.613Z,19.86
2022-11-16T14:16:47.737Z,19.87
2022-11-16T14:21:57.771Z,19.83
2022-11-16T14:27:09.969Z,19.83
2022-11-16T14:32:22.785Z,19.84
2022-11-16T14:37:35.588Z,19.85
2022-11-16T14:43:09.922Z,19.82
2022-11-16T14:48:17.905Z,19.83
2022-11-16T14:53:21.269Z,19.82
2022-11-16T14:58:25.454Z,19.80
2022-11-16T15:03:32.558Z,19.37
2022-11-16T15:08:39.531Z,18.98
2022-11-16T15:13:46.803Z,19.32
2022-11-16T15:19:00.579Z,19.42
2022-11-16T15:29:28.735Z,19.61
2022-11-16T15:34:32.511Z,19.68
2022-11-16T15:39:37.134Z,19.79
2022-11-16T15:44:44.045Z,19.91
2022-11-16T15:49:52.832Z,20.03
2022-11-16T15:55:05.108Z,20.15
2022-11-16T16:00:23.417Z,20.25
2022-11-16T16:05:34.796Z,20.33
2022-11-16T16:10:37.577Z,20.42
2022-11-16T16:15:41.861Z,20.50
2022-11-16T16:20:49.581Z,20.56
2022-11-16T16:25:52.397Z,20.62
2022-11-16T16:30:56.513Z,20.62
2022-11-16T16:35:59.253Z,20.66
2022-11-16T16:41:03.575Z,20.73
2022-11-16T16:46:08.385Z,20.80
2022-11-16T16:51:13.800Z,20.90
2022-11-16T16:56:19.847Z,20.96
2022-11-16T17:01:24.018Z,21.03
2022-11-16T17:06:26.850Z,21.12
2022-11-16T17:11:29.969Z,21.17
2022-11-16T17:16:34.180Z,21.20
2022-11-16T17:21:37.084Z,21.25
2022-11-16T17:26:41.096Z,21.31
2022-11-16T17:31:47.625Z,21.35
2022-11-16T17:36:53.039Z,21.42
2022-11-16T17:41:55.770Z,21.46
2022-11-16T17:46:59.880Z,21.49
2022-11-16T17:52:02.888Z,21.55
2022-11-16T17:57:05.683Z,21.58
2022-11-16T18:02:12.329Z,21.62
2022-11-16T18:07:15.110Z,21.63
2022-11-16T18:12:17.907Z,21.68
2022-11-16T18:17:22.043Z,21.68
2022-11-16T18:22:24.846Z,21.73
2022-11-16T18:27:27.613Z,21.78
2022-11-16T18:32:33.456Z,21.80
2022-11-16T18:37:36.592Z,21.84
2022-11-16T18:42:39.945Z,21.87
2022-11-16T18:47:44.056Z,21.90
2022-11-16T18:52:46.984Z,21.93
2022-11-16T18:57:49.725Z,21.95
2022-11-16T19:02:53.757Z,22.00
2022-11-16T19:07:56.576Z,21.92
2022-11-16T19:13:00.004Z,21.90
2022-11-16T19:18:21.076Z,22.00
2022-11-16T19:23:24.741Z,22.07
2022-11-16T19:28:27.601Z,22.26
2022-11-16T19:33:31.820Z,22.43
2022-11-16T19:38:35.031Z,22.54
2022-11-16T19:43:38.483Z,22.59
2022-11-16T19:48:42.743Z,22.62
2022-11-16T19:53:45.895Z,22.64
2022-11-16T19:58:48.972Z,22.67
2022-11-16T20:03:53.404Z,22.71
2022-11-16T20:08:58.447Z,22.73
2022-11-16T20:14:02.046Z,22.73
2022-11-16T20:19:06.880Z,22.74
2022-11-16T20:24:13.022Z,22.65
2022-11-16T20:29:18.158Z,22.61
2022-11-16T20:34:22.257Z,22.61
2022-11-16T20:39:24.992Z,22.70
2022-11-16T20:44:27.753Z,22.82
2022-11-16T20:49:31.914Z,22.89
2022-11-16T20:54:34.921Z,22.94
2022-11-16T20:59:37.711Z,22.94
2022-11-16T21:04:41.992Z,22.95
2022-11-16T21:10:02.669Z,22.93
2022-11-16T21:15:06.319Z,22.94
2022-11-16T21:20:26.772Z,22.92
2022-11-16T21:25:30.561Z,22.87
2022-11-16T21:30:33.380Z,22.86
2022-11-16T21:35:37.520Z,22.83
2022-11-16T21:40:40.294Z,22.84
2022-11-16T21:45:43.113Z,22.87
2022-11-16T21:50:47.221Z,22.87
2022-11-16T21:55:50.867Z,22.86
2022-11-16T22:00:56.202Z,22.90
2022-11-16T22:06:20.876Z,22.89
2022-11-16T22:11:23.818Z,22.86
2022-11-16T22:16:26.590Z,22.86
2022-11-16T22:21:30.883Z,22.86
2022-11-16T22:26:33.686Z,22.86
2022-11-16T22:31:36.580Z,22.85
2022-11-16T22:36:40.696Z,22.86
2022-11-16T22:41:44.635Z,22.84
2022-11-16T22:46:49.356Z,22.82
2022-11-16T22:51:53.628Z,22.82
2022-11-16T22:56:56.553Z,22.85
2022-11-16T23:02:00.917Z,22.84
2022-11-16T23:07:05.106Z,22.83
2022-11-16T23:12:25.528Z,22.83
2022-11-16T23:17:28.374Z,22.85
2022-11-16T23:22:50.313Z,22.85
2022-11-16T23:27:57.877Z,22.82
2022-11-16T23:33:00.678Z,22.85
2022-11-16T23:38:07.171Z,22.84
2022-11-16T23:43:28.859Z,22.80
2022-11-16T23:48:31.618Z,22.84
2022-11-16T23:53:36.054Z,22.81
2022-11-16T23:58:39.030Z,22.82
